Details From LICC - Catania Fontanarossa
To LMML - La Valette Luqa
Flight Number -
Tags None
Created
Modified
Stats Distance 116 nm / 216 km
Max Altitude 7,000 ft / 2,134 m
Waypoints 4
Social Downloads 6
Likes 1
Share VATSIM

Download

Looking for another format? Having issues loading an existing format? Contact us
Advertisement - Login to hide

Notes

None

Route

LICC NELDA GZO LMML

ID Type Via Altitude Latitude Longitude Leg Dist Tot Dist Heading (true) Name
O LICC APT - 39 ft / 12 m 37.46678˚ 15.06640˚ - 0 nm - Catania Fontanarossa
NELDA FIX - 7,000 ft / 2,134 m 36.86278˚ 14.39278˚ 48 nm 48 nm 222° / 221° -
GZO VOR - 3,300 ft / 1,006 m 36.03733˚ 14.20525˚ 50 nm 98 nm 190° / 190° GOZO VOR-DME
O LMML APT - 2,300 ft / 701 m 35.84948˚ 14.48184˚ 17 nm 116 nm 130° / 130° La Valette Luqa

Altitude Profile

Advertisement - Login to hide

LICC

Details ICAO LICC (CTA)
Name Catania Fontanarossa
Region Italy
Timezone Europe/Rome (UTC+1.0)
Stats Elevation 39 ft / 12 m (AMSL)
Location 37.466779° 15.066401°
Runways 1
Magnetic Variation 3.215° E

METAR

LICC 110920Z 21008KT 9000 -DZ FEW030 BKN060 12/09 Q1019

Decode

TAF

TAF LICC 110500Z 1106/1206 25015KT 9999 SCT030

Decode

Departure Runways

ID Width Length Bearing (true) Bearing (mag) Surface Threshold Offset Overrun Length
08 148 ft / 45 m 7,985 ft / 2,434 m 83.94° 80.73° Asphalt 312 ft / 95 m 0 ft / 0 m
26 148 ft / 45 m 7,985 ft / 2,434 m 263.95° 260.74° Asphalt 279 ft / 85 m 0 ft / 0 m

LMML

Details ICAO LMML (MLA)
Name La Valette Luqa
Region Malta
Timezone Europe/Malta (UTC+1.0)
Stats Elevation 300 ft / 91 m (AMSL)
Location 35.849477° 14.481836°
Runways 2
Magnetic Variation 3.019° E

METAR

LMML 110915Z 22010KT 190V250 9999 FEW030 18/11 Q1020 NOSIG

Decode

TAF

TAF AMD LMML 110500Z 1106/1206 21017KT 9999 SCT025 TEMPO 1106/1112 8000 RA

Decode

Destination Runways

ID Width Length Bearing (true) Bearing (mag) Surface Threshold Offset Overrun Length
14 197 ft / 60 m 11,635 ft / 3,546 m 134.83° 131.81° Asphalt 0 ft / 0 m 420 ft / 128 m
24 148 ft / 45 m 7,789 ft / 2,374 m 234.37° 231.35° Asphalt 410 ft / 125 m 0 ft / 0 m
32 197 ft / 60 m 11,635 ft / 3,546 m 314.85° 311.83° Asphalt 817 ft / 249 m 0 ft / 0 m
6 148 ft / 45 m 7,789 ft / 2,374 m 54.35° 51.33° Asphalt 400 ft / 122 m 0 ft / 0 m

Approach Navaids

Runway Type Ident Frequency Range Bearing (true) Bearing (mag) Slope Elevation
14 Localiser LQ 109.70 MHz 18 nm / 33 km 134.95° 131.93° - 230 ft / 70 m (AMSL)
14 Glidescope LQ 109.70 MHz 10 nm / 19 km 134.84° 131.82° 2.85° 256 ft / 78 m (AMSL)
32 Localiser LM 110.50 MHz 18 nm / 33 km 314.79° 311.77° - 256 ft / 78 m (AMSL)
32 Glidescope LM 110.50 MHz 10 nm / 19 km 314.84° 311.82° 2.85° 230 ft / 70 m (AMSL)

Popular Alternatives